createdAt,value
2022-12-08T00:01:23.711Z,8.15
2022-12-08T00:03:51.461Z,8.65
2022-12-08T00:06:44.139Z,8.63
2022-12-08T00:09:24.717Z,8.90
2022-12-08T00:11:52.031Z,9.80
2022-12-08T00:14:19.716Z,9.80
2022-12-08T00:16:47.349Z,9.63
2022-12-08T00:19:14.835Z,7.78
2022-12-08T00:21:42.183Z,8.13
2022-12-08T00:24:09.254Z,9.77
2022-12-08T00:26:37.271Z,9.23
2022-12-08T00:29:05.260Z,8.55
2022-12-08T00:31:32.850Z,8.70
2022-12-08T00:34:00.954Z,8.38
2022-12-08T00:36:28.262Z,9.23
2022-12-08T00:38:55.735Z,9.63
2022-12-08T00:41:43.050Z,8.80
2022-12-08T00:44:13.053Z,8.52
2022-12-08T00:46:41.054Z,8.65
2022-12-08T00:49:08.549Z,8.85
2022-12-08T00:51:36.195Z,9.52
2022-12-08T00:54:04.738Z,8.90
2022-12-08T00:56:32.202Z,9.07
2022-12-08T00:59:00.700Z,9.88
2022-12-08T01:01:28.210Z,9.25
2022-12-08T01:03:55.601Z,7.75
2022-12-08T01:06:23.282Z,7.85
2022-12-08T01:08:50.745Z,8.32
2022-12-08T01:11:19.450Z,10.13
2022-12-08T01:13:47.110Z,9.63
2022-12-08T01:16:29.783Z,9.75
2022-12-08T01:18:58.175Z,11.32
2022-12-08T01:21:25.659Z,10.27
2022-12-08T01:23:53.078Z,9.48
2022-12-08T01:26:21.080Z,9.60
2022-12-08T01:28:48.756Z,8.90
2022-12-08T01:31:18.539Z,9.43
2022-12-08T01:33:46.465Z,10.00
2022-12-08T01:36:26.577Z,10.63
2022-12-08T01:38:54.758Z,10.70
2022-12-08T01:41:24.749Z,10.65
2022-12-08T01:44:05.308Z,8.93
2022-12-08T01:46:33.815Z,8.75
2022-12-08T01:49:16.764Z,8.32
2022-12-08T01:52:09.314Z,8.00
2022-12-08T01:54:40.587Z,8.38
2022-12-08T01:57:16.320Z,8.55
2022-12-08T01:59:49.203Z,7.78
2022-12-08T02:02:16.980Z,8.20
2022-12-08T02:04:44.325Z,8.55
2022-12-08T02:07:13.118Z,8.32
2022-12-08T02:09:41.109Z,8.73
2022-12-08T02:12:09.111Z,8.05
2022-12-08T02:14:36.597Z,9.35
2022-12-08T02:17:15.020Z,8.38
2022-12-08T02:20:05.949Z,7.38
2022-12-08T02:22:40.029Z,7.55
2022-12-08T02:25:33.888Z,8.30
2022-12-08T02:28:06.124Z,9.27
2022-12-08T02:30:36.912Z,10.23
2022-12-08T02:33:22.226Z,8.77
2022-12-08T02:35:57.786Z,9.63
2022-12-08T02:38:37.034Z,8.50
2022-12-08T02:41:17.131Z,9.10
2022-12-08T02:43:47.352Z,8.77
2022-12-08T02:46:20.649Z,7.95
2022-12-08T02:48:48.356Z,7.60
2022-12-08T02:51:16.087Z,7.45
2022-12-08T02:53:44.139Z,7.38
2022-12-08T02:56:50.046Z,7.30
2022-12-08T02:59:44.143Z,7.05
2022-12-08T03:02:23.696Z,6.03
2022-12-08T03:04:51.249Z,6.65
2022-12-08T03:07:25.054Z,7.05
2022-12-08T03:09:59.531Z,7.05
2022-12-08T03:12:32.373Z,6.40
2022-12-08T03:15:11.375Z,9.40
2022-12-08T03:17:42.061Z,9.35
2022-12-08T03:20:11.538Z,9.53
2022-12-08T03:22:40.379Z,10.40
2022-12-08T03:25:11.165Z,9.60
2022-12-08T03:27:38.933Z,9.63
2022-12-08T03:30:07.452Z,10.43
2022-12-08T03:32:55.643Z,10.43
2022-12-08T03:35:29.079Z,10.35
2022-12-08T03:38:23.163Z,10.70
2022-12-08T03:41:10.937Z,10.55
2022-12-08T03:43:38.556Z,10.15
2022-12-08T03:46:06.264Z,9.32
2022-12-08T03:48:33.944Z,9.77
2022-12-08T03:51:01.559Z,10.07
2022-12-08T03:53:29.404Z,10.40
2022-12-08T03:55:57.183Z,10.88
2022-12-08T03:58:24.380Z,10.10
2022-12-08T04:00:51.951Z,9.57
2022-12-08T04:03:19.632Z,10.00
2022-12-08T04:05:47.571Z,9.00
2022-12-08T04:08:15.518Z,9.23
2022-12-08T04:10:42.956Z,8.88
2022-12-08T04:13:10.567Z,9.65
2022-12-08T04:15:38.021Z,9.75
2022-12-08T04:18:05.739Z,10.75
2022-12-08T04:20:33.425Z,11.75
2022-12-08T04:23:01.102Z,12.43
2022-12-08T04:25:28.961Z,11.27
2022-12-08T04:27:56.573Z,11.90
2022-12-08T04:30:24.299Z,11.18
2022-12-08T04:32:51.846Z,11.52
2022-12-08T04:35:19.431Z,10.93
2022-12-08T04:37:47.210Z,11.32
2022-12-08T04:40:15.211Z,11.50
2022-12-08T04:42:42.853Z,12.35
2022-12-08T04:45:10.853Z,15.88
2022-12-08T04:47:38.453Z,16.20
2022-12-08T04:50:06.888Z,16.17
2022-12-08T04:52:36.584Z,15.82
2022-12-08T04:55:04.692Z,16.67
2022-12-08T04:57:32.230Z,12.40
2022-12-08T04:59:59.977Z,13.38
2022-12-08T05:02:27.746Z,11.95
2022-12-08T05:04:55.587Z,11.07
2022-12-08T05:07:23.455Z,11.05
2022-12-08T05:09:50.988Z,10.88
2022-12-08T05:12:18.470Z,11.52
2022-12-08T05:14:47.621Z,10.57
2022-12-08T05:17:16.464Z,10.45
2022-12-08T05:19:44.174Z,11.18
2022-12-08T05:22:11.595Z,11.45
2022-12-08T05:24:43.971Z,12.10
2022-12-08T05:27:14.470Z,10.70
2022-12-08T05:29:42.198Z,10.32
2022-12-08T05:32:09.633Z,10.93
2022-12-08T05:34:37.249Z,11.48
2022-12-08T05:37:04.997Z,12.00
2022-12-08T05:39:32.476Z,12.48
2022-12-08T05:42:00.236Z,11.88
2022-12-08T05:44:27.481Z,11.68
2022-12-08T05:46:54.884Z,12.40
2022-12-08T05:49:22.484Z,11.50
2022-12-08T05:51:49.884Z,11.65
2022-12-08T05:54:17.341Z,12.27
2022-12-08T05:56:44.727Z,12.63
2022-12-08T05:59:12.265Z,11.98
2022-12-08T06:01:39.678Z,12.38
2022-12-08T06:04:07.168Z,11.93
2022-12-08T06:06:35.727Z,11.73
2022-12-08T06:09:04.892Z,12.70
2022-12-08T06:11:33.174Z,11.68
2022-12-08T06:14:00.740Z,11.93
2022-12-08T06:16:28.673Z,12.00
2022-12-08T06:18:56.615Z,12.85
2022-12-08T06:21:24.401Z,11.88
2022-12-08T06:23:54.519Z,12.02
2022-12-08T06:26:22.355Z,11.00
2022-12-08T06:28:50.468Z,11.93
2022-12-08T06:31:20.593Z,11.73
2022-12-08T06:33:48.518Z,11.60
2022-12-08T06:36:17.518Z,11.38
2022-12-08T06:38:44.932Z,11.13
2022-12-08T06:41:12.918Z,13.32
2022-12-08T06:43:40.295Z,12.30
2022-12-08T06:46:10.218Z,11.75
2022-12-08T06:48:37.516Z,12.07
2022-12-08T06:51:08.309Z,15.17
2022-12-08T06:53:35.532Z,14.55
2022-12-08T06:56:03.200Z,13.63
2022-12-08T06:58:30.309Z,14.70
2022-12-08T07:00:57.204Z,12.48
2022-12-08T07:03:23.990Z,12.25
2022-12-08T07:05:50.839Z,13.85
2022-12-08T07:08:17.938Z,14.43
2022-12-08T07:10:44.874Z,15.43
2022-12-08T07:13:11.697Z,15.35
2022-12-08T07:15:38.494Z,15.23
2022-12-08T07:18:05.407Z,15.23
2022-12-08T07:20:33.925Z,15.48
2022-12-08T07:23:00.635Z,14.75
2022-12-08T07:25:27.702Z,15.90
2022-12-08T07:27:54.645Z,16.58
2022-12-08T07:30:21.730Z,18.17
2022-12-08T07:32:48.661Z,17.98
2022-12-08T07:35:15.728Z,17.73
2022-12-08T07:37:42.769Z,17.23
2022-12-08T07:40:10.481Z,17.00
2022-12-08T07:42:37.524Z,17.52
2022-12-08T07:45:05.062Z,18.50
2022-12-08T07:47:32.233Z,18.33
2022-12-08T07:49:59.286Z,19.55
2022-12-08T07:52:26.322Z,18.53
2022-12-08T07:54:53.347Z,20.10
2022-12-08T07:57:22.129Z,20.75
2022-12-08T07:59:49.314Z,20.75
2022-12-08T08:02:26.258Z,21.10
2022-12-08T08:04:53.811Z,24.53
2022-12-08T08:07:21.077Z,26.90
2022-12-08T08:09:48.223Z,25.85
2022-12-08T08:12:30.839Z,20.58
2022-12-08T08:15:00.302Z,19.02
2022-12-08T08:17:28.047Z,18.17
2022-12-08T08:19:55.120Z,19.10
2022-12-08T08:22:22.104Z,18.10
2022-12-08T08:24:49.046Z,19.73
2022-12-08T08:27:16.259Z,18.20
2022-12-08T08:29:43.533Z,18.70
2022-12-08T08:32:10.688Z,18.77
2022-12-08T08:34:38.020Z,19.35
2022-12-08T08:37:05.426Z,19.33
2022-12-08T08:39:32.607Z,19.90
2022-12-08T08:41:59.784Z,18.30
2022-12-08T08:44:26.881Z,18.63
2022-12-08T08:46:53.958Z,18.92
2022-12-08T08:49:21.490Z,19.65
2022-12-08T08:51:48.764Z,19.00
2022-12-08T08:54:15.881Z,20.07
2022-12-08T08:56:42.780Z,19.40
2022-12-08T08:59:12.087Z,19.90
2022-12-08T09:01:39.110Z,19.42
2022-12-08T09:04:06.102Z,20.75
2022-12-08T09:06:33.311Z,19.67
2022-12-08T09:09:00.628Z,19.15
2022-12-08T09:11:27.844Z,18.55
2022-12-08T09:13:55.494Z,19.27
2022-12-08T09:16:22.732Z,20.08
2022-12-08T09:18:49.938Z,18.77
2022-12-08T09:21:23.149Z,18.23
2022-12-08T09:23:51.804Z,18.58
2022-12-08T09:26:23.264Z,18.73
2022-12-08T09:28:54.800Z,18.33
2022-12-08T09:31:27.932Z,17.63
2022-12-08T09:33:54.857Z,17.48
2022-12-08T09:36:21.747Z,16.38
2022-12-08T09:38:50.374Z,14.73
2022-12-08T09:41:49.858Z,17.58
2022-12-08T09:44:34.675Z,17.47
2022-12-08T09:47:04.107Z,15.43
2022-12-08T09:49:47.174Z,14.20
2022-12-08T09:52:21.329Z,13.32
2022-12-08T09:54:48.778Z,13.00
2022-12-08T09:57:17.751Z,13.00
2022-12-08T09:59:49.336Z,11.13
2022-12-08T10:02:27.610Z,13.65
2022-12-08T10:04:56.162Z,13.20
2022-12-08T10:07:46.382Z,13.70
2022-12-08T10:10:32.618Z,13.97
2022-12-08T10:13:18.066Z,13.60
2022-12-08T10:16:22.006Z,13.25
2022-12-08T10:18:58.018Z,13.60
2022-12-08T10:21:27.566Z,13.93
2022-12-08T10:23:59.406Z,14.40
2022-12-08T10:26:26.682Z,14.95
2022-12-08T10:28:53.705Z,14.70
2022-12-08T10:31:22.697Z,15.65
2022-12-08T10:33:58.687Z,14.35
2022-12-08T10:36:45.248Z,15.23
2022-12-08T10:39:35.063Z,14.15
2022-12-08T10:42:13.828Z,13.77
2022-12-08T10:45:09.587Z,12.52
2022-12-08T10:47:44.794Z,12.63
2022-12-08T10:50:15.845Z,12.57
2022-12-08T10:52:42.618Z,12.85
2022-12-08T10:55:19.660Z,12.20
2022-12-08T10:57:49.069Z,13.40
2022-12-08T11:00:20.509Z,14.18
2022-12-08T11:03:02.139Z,12.37
2022-12-08T11:05:33.734Z,12.18
2022-12-08T11:08:01.066Z,13.02
2022-12-08T11:10:33.531Z,12.18
2022-12-08T11:13:02.579Z,13.13
2022-12-08T11:15:33.996Z,13.90
2022-12-08T11:18:03.235Z,13.50
2022-12-08T11:20:38.721Z,13.05
2022-12-08T11:23:20.382Z,11.85
2022-12-08T11:25:48.696Z,14.15
2022-12-08T11:28:16.557Z,13.97
2022-12-08T11:30:47.368Z,13.65
2022-12-08T11:33:18.063Z,13.20
2022-12-08T11:35:47.797Z,12.35
2022-12-08T11:38:22.939Z,15.18
2022-12-08T11:41:04.070Z,12.80
2022-12-08T11:43:42.736Z,13.63
2022-12-08T11:46:13.769Z,14.27
2022-12-08T11:48:50.876Z,15.13
2022-12-08T11:51:29.568Z,15.40
2022-12-08T11:54:28.617Z,15.87
2022-12-08T11:56:59.282Z,14.25
2022-12-08T11:59:29.252Z,13.02
2022-12-08T12:01:58.566Z,13.32
2022-12-08T12:04:36.632Z,13.82
2022-12-08T12:07:12.878Z,13.80
2022-12-08T12:09:56.900Z,14.23
2022-12-08T12:12:57.750Z,14.55
2022-12-08T12:15:51.823Z,14.18
2022-12-08T12:18:29.153Z,13.30
2022-12-08T12:21:12.740Z,13.43
2022-12-08T12:23:43.834Z,13.27
2022-12-08T12:26:19.934Z,14.15
2022-12-08T12:29:08.660Z,14.25
2022-12-08T12:31:37.996Z,14.63
2022-12-08T12:34:14.946Z,13.97
2022-12-08T12:36:49.531Z,15.25
2022-12-08T12:39:19.328Z,15.13
2022-12-08T12:41:48.532Z,14.35
2022-12-08T12:44:19.635Z,14.30
2022-12-08T12:46:46.405Z,15.17
2022-12-08T12:49:38.300Z,14.02
2022-12-08T12:52:18.171Z,14.15
2022-12-08T12:55:10.513Z,13.80
2022-12-08T12:57:53.748Z,13.68
2022-12-08T13:00:26.446Z,16.53
2022-12-08T13:02:55.840Z,14.98
2022-12-08T13:05:30.263Z,14.70
2022-12-08T13:08:06.695Z,14.27
2022-12-08T13:10:35.017Z,13.18
2022-12-08T13:13:18.166Z,15.60
2022-12-08T13:15:54.054Z,13.18
2022-12-08T13:18:56.501Z,14.20
2022-12-08T13:21:25.530Z,11.75
2022-12-08T13:24:13.898Z,12.68
2022-12-08T13:26:51.529Z,18.73
2022-12-08T13:29:25.601Z,13.15
2022-12-08T13:31:57.074Z,12.68
2022-12-08T13:34:42.241Z,13.85
2022-12-08T13:37:12.438Z,12.63
2022-12-08T13:39:39.561Z,12.33
2022-12-08T13:42:32.385Z,13.20
2022-12-08T13:46:12.259Z,13.07
2022-12-08T13:48:55.913Z,13.00
2022-12-08T13:57:19.200Z,11.43
2022-12-08T13:59:46.472Z,13.15
2022-12-08T14:02:21.401Z,12.43
2022-12-08T14:07:38.193Z,12.47
2022-12-08T14:10:09.265Z,12.27
2022-12-08T14:12:37.011Z,12.55
2022-12-08T14:15:06.945Z,12.90
2022-12-08T14:17:34.285Z,12.60
2022-12-08T14:20:19.984Z,13.43
2022-12-08T14:22:50.376Z,13.23
2022-12-08T14:25:18.140Z,13.60
2022-12-08T14:27:45.868Z,12.55
2022-12-08T14:30:15.935Z,12.52
2022-12-08T14:32:54.754Z,11.63
2022-12-08T14:35:32.028Z,12.18
2022-12-08T14:38:01.773Z,11.98
2022-12-08T14:40:37.499Z,11.55
2022-12-08T14:43:07.993Z,10.65
2022-12-08T14:45:44.252Z,10.67
2022-12-08T14:48:39.044Z,11.23
2022-12-08T14:51:24.510Z,10.90
2022-12-08T14:54:09.787Z,10.82
2022-12-08T14:56:39.526Z,9.98
2022-12-08T14:59:09.424Z,10.43
2022-12-08T15:01:37.146Z,10.60
2022-12-08T15:04:19.429Z,10.65
2022-12-08T15:06:54.556Z,11.20
2022-12-08T15:09:40.050Z,10.40
2022-12-08T15:12:23.243Z,12.10
2022-12-08T15:15:16.020Z,10.13
2022-12-08T15:18:08.921Z,10.07
2022-12-08T15:20:39.308Z,10.25
2022-12-08T15:23:11.043Z,11.23
2022-12-08T15:25:38.082Z,10.97
2022-12-08T15:28:05.304Z,11.68
2022-12-08T15:30:33.648Z,10.95
2022-12-08T15:33:01.068Z,11.38
2022-12-08T15:35:28.796Z,12.23
2022-12-08T15:37:56.073Z,12.40
2022-12-08T15:40:23.453Z,11.52
2022-12-08T15:42:50.622Z,12.23
2022-12-08T15:45:18.076Z,10.77
2022-12-08T15:47:46.078Z,11.82
2022-12-08T15:50:21.783Z,10.90
2022-12-08T15:52:50.186Z,11.55
2022-12-08T15:55:21.844Z,11.52
2022-12-08T15:58:51.323Z,11.80
2022-12-08T16:00:55.956Z,10.85
2022-12-08T16:04:08.936Z,10.60
2022-12-08T16:09:13.173Z,11.13
2022-12-08T16:12:08.903Z,10.63
2022-12-08T16:17:26.464Z,11.30
2022-12-08T16:19:53.731Z,11.15
2022-12-08T16:25:21.632Z,9.98
2022-12-08T16:28:08.400Z,10.02
2022-12-08T16:30:40.116Z,9.83
2022-12-08T16:33:07.110Z,10.65
2022-12-08T16:35:34.495Z,9.32
2022-12-08T16:38:01.801Z,10.32
2022-12-08T16:40:29.124Z,9.15
2022-12-08T16:42:56.695Z,10.47
2022-12-08T16:45:29.425Z,10.63
2022-12-08T16:47:59.117Z,10.05
2022-12-08T16:50:32.217Z,9.50
2022-12-08T16:53:07.121Z,9.30
2022-12-08T16:55:34.852Z,9.30
2022-12-08T16:58:02.855Z,9.43
2022-12-08T17:00:31.219Z,10.55
2022-12-08T17:02:59.222Z,10.55
2022-12-08T17:05:27.238Z,10.38
2022-12-08T17:07:54.944Z,11.80
2022-12-08T17:10:25.345Z,11.43
2022-12-08T17:12:52.724Z,11.75
2022-12-08T17:15:22.359Z,10.95
2022-12-08T17:17:49.767Z,11.43
2022-12-08T17:20:19.815Z,12.10
2022-12-08T17:22:47.873Z,11.75
2022-12-08T17:25:15.875Z,11.70
2022-12-08T17:27:43.145Z,11.80
2022-12-08T17:30:12.238Z,11.13
2022-12-08T17:32:39.725Z,11.10
2022-12-08T17:35:07.780Z,11.40
2022-12-08T17:37:35.220Z,11.20
2022-12-08T17:40:02.979Z,10.35
2022-12-08T17:42:30.887Z,12.15
2022-12-08T17:44:58.154Z,11.33
2022-12-08T17:47:25.545Z,11.57
2022-12-08T17:49:52.841Z,11.23
2022-12-08T17:52:20.158Z,12.55
2022-12-08T17:54:47.892Z,12.65
2022-12-08T17:57:15.739Z,12.40
2022-12-08T17:59:43.121Z,12.50
2022-12-08T18:02:12.217Z,11.75
2022-12-08T18:04:39.894Z,11.20
2022-12-08T18:07:07.119Z,11.95
2022-12-08T18:09:34.763Z,11.93
2022-12-08T18:12:02.259Z,12.18
2022-12-08T18:14:29.898Z,12.57
2022-12-08T18:16:57.386Z,12.93
2022-12-08T18:19:24.900Z,11.48
2022-12-08T18:21:52.349Z,10.30
2022-12-08T18:24:22.331Z,10.32
2022-12-08T18:26:52.519Z,9.63
2022-12-08T18:29:22.016Z,8.70
2022-12-08T18:31:49.387Z,9.00
2022-12-08T18:34:19.136Z,9.13
2022-12-08T18:36:46.909Z,8.40
2022-12-08T18:39:26.239Z,8.95
2022-12-08T18:41:54.025Z,9.52
2022-12-08T18:44:21.559Z,10.25
2022-12-08T18:46:48.852Z,10.63
2022-12-08T18:49:19.040Z,10.88
2022-12-08T18:51:47.033Z,9.80
2022-12-08T18:54:14.712Z,11.18
2022-12-08T18:56:42.005Z,9.93
2022-12-08T18:59:11.292Z,10.43
2022-12-08T19:01:39.984Z,10.50
2022-12-08T19:04:27.760Z,10.13
2022-12-08T19:06:56.418Z,10.90
2022-12-08T19:09:25.786Z,10.65
2022-12-08T19:11:53.297Z,11.43
2022-12-08T19:14:27.255Z,10.85
2022-12-08T19:16:55.213Z,10.20
2022-12-08T19:19:22.797Z,9.63
2022-12-08T19:21:50.294Z,10.95
2022-12-08T19:24:17.927Z,10.63
2022-12-08T19:26:45.423Z,10.13
2022-12-08T19:29:13.315Z,9.75
2022-12-08T19:31:41.445Z,9.77
2022-12-08T19:34:10.222Z,9.80
2022-12-08T19:36:42.717Z,9.80
2022-12-08T19:39:36.628Z,9.68
2022-12-08T19:42:24.915Z,10.52
2022-12-08T19:44:54.969Z,11.18
2022-12-08T19:47:24.725Z,10.80
2022-12-08T19:49:53.309Z,13.43
2022-12-08T19:52:21.063Z,15.52
2022-12-08T19:54:48.463Z,16.10
2022-12-08T19:57:16.149Z,17.17
2022-12-08T19:59:43.441Z,16.27
2022-12-08T20:02:11.325Z,14.47
2022-12-08T20:04:38.967Z,12.00
2022-12-08T20:07:06.378Z,10.95
2022-12-08T20:09:34.096Z,10.27
2022-12-08T20:12:01.625Z,9.63
2022-12-08T20:14:28.956Z,11.23
2022-12-08T20:16:56.948Z,10.90
2022-12-08T20:19:24.455Z,11.48
2022-12-08T20:21:51.953Z,11.13
2022-12-08T20:24:20.106Z,11.55
2022-12-08T20:26:47.470Z,11.80
2022-12-08T20:29:17.110Z,11.60
2022-12-08T20:31:45.025Z,12.25
2022-12-08T20:34:17.111Z,12.68
2022-12-08T20:36:44.968Z,13.35
2022-12-08T20:39:17.971Z,13.30
2022-12-08T20:41:46.970Z,13.20
2022-12-08T20:44:14.479Z,12.80
2022-12-08T20:46:46.250Z,13.88
2022-12-08T20:49:16.741Z,14.23
2022-12-08T20:51:44.781Z,14.73
2022-12-08T20:54:12.220Z,14.88
2022-12-08T20:56:46.469Z,13.65
2022-12-08T20:59:17.151Z,13.05
2022-12-08T21:01:44.636Z,13.18
2022-12-08T21:04:13.140Z,11.93
2022-12-08T21:06:40.988Z,12.40
2022-12-08T21:09:09.241Z,12.70
2022-12-08T21:11:37.141Z,13.02
2022-12-08T21:14:05.082Z,12.38
2022-12-08T21:16:32.810Z,11.90
2022-12-08T21:19:00.617Z,12.88
2022-12-08T21:21:27.990Z,13.30
2022-12-08T21:23:55.597Z,12.55
2022-12-08T21:26:26.187Z,12.98
2022-12-08T21:28:57.982Z,12.50
2022-12-08T21:31:32.144Z,13.48
2022-12-08T21:34:00.545Z,13.98
2022-12-08T21:36:28.065Z,13.32
2022-12-08T21:38:55.614Z,13.88
2022-12-08T21:41:42.438Z,13.83
2022-12-08T21:44:11.988Z,13.73
2022-12-08T21:46:39.314Z,15.43
2022-12-08T21:49:07.176Z,14.23
2022-12-08T21:51:38.031Z,13.93
2022-12-08T21:54:05.419Z,14.00
2022-12-08T21:56:33.270Z,14.32
2022-12-08T21:59:00.555Z,13.93
2022-12-08T22:01:28.188Z,14.13
2022-12-08T22:03:56.312Z,14.85
2022-12-08T22:06:23.878Z,14.17
2022-12-08T22:08:51.393Z,15.52
2022-12-08T22:11:19.386Z,14.88
2022-12-08T22:13:47.029Z,14.57
2022-12-08T22:16:15.058Z,15.88
2022-12-08T22:18:42.906Z,15.53
2022-12-08T22:21:16.369Z,17.92
2022-12-08T22:23:44.472Z,17.48
2022-12-08T22:26:12.709Z,17.58
2022-12-08T22:28:42.471Z,15.43
2022-12-08T22:31:15.441Z,14.93
2022-12-08T22:33:43.499Z,14.98
2022-12-08T22:36:15.653Z,15.10
2022-12-08T22:38:43.013Z,14.07
2022-12-08T22:41:10.571Z,14.48
2022-12-08T22:43:37.902Z,14.57
2022-12-08T22:46:24.445Z,14.52
2022-12-08T22:48:54.768Z,13.55
2022-12-08T22:51:22.011Z,14.55
2022-12-08T22:53:50.150Z,15.55
2022-12-08T22:56:19.218Z,13.90
2022-12-08T22:58:47.117Z,14.93
2022-12-08T23:01:26.334Z,15.05
2022-12-08T23:03:53.674Z,14.77
2022-12-08T23:06:21.741Z,15.45
2022-12-08T23:08:49.380Z,14.77
2022-12-08T23:11:17.353Z,16.08
2022-12-08T23:13:45.394Z,15.40
2022-12-08T23:16:13.202Z,16.30
2022-12-08T23:18:42.547Z,15.93
2022-12-08T23:21:16.714Z,15.07
2022-12-08T23:23:44.140Z,16.08
2022-12-08T23:26:21.964Z,15.43
2022-12-08T23:28:50.513Z,15.95
2022-12-08T23:31:18.482Z,15.60
2022-12-08T23:33:46.570Z,15.83
2022-12-08T23:36:14.489Z,15.23
2022-12-08T23:38:42.148Z,15.23
2022-12-08T23:41:11.580Z,14.65
2022-12-08T23:43:47.293Z,14.68
2022-12-08T23:46:16.040Z,16.63
2022-12-08T23:48:43.736Z,15.80
2022-12-08T23:51:12.126Z,14.10
2022-12-08T23:53:40.228Z,15.30
2022-12-08T23:56:10.574Z,15.52
2022-12-08T23:58:38.504Z,16.63
